KPUB

Pueblo Memorial Airport

Pueblo, Colorado, USA
KPUB 221140Z 2212/2312 36025G35KT P6SM VCSH SCT020 BKN060 FM221600 36028G38KT P6SM SCT050 BKN100 FM222300 35018G28KT P6SM SCT080 BKN150 FM230200 30007KT P6SM FEW150 SCT250
Issued Valid From Valid To
Jan-22 @ 11:40 UTC
(5 hours ago)
Jan-22 @ 12:00 UTC
(5 hours ago)
Jan-23 @ 12:00 UTC
(in 19 hours)
Expired Click to View Jan-22 @ 12:00 to Jan-22 @ 16:00
KPUB 221140Z 2212/2312 36025G35KT P6SM VCSH SCT020 BKN060
Wind Visibility Clouds
360° at 25 knots
 Gusting to 35 knots
Greater than 6 miles
  • Scattered at 2,000' AGL
  • Broken at 6,000' AGL
From Jan-22 @ 16:00 to Jan-22 @ 23:00
FM221600 36028G38KT P6SM SCT050 BKN100
Wind Visibility Clouds
360° at 28 knots
 Gusting to 38 knots
Greater than 6 miles
  • Scattered at 5,000' AGL
  • Broken at 10,000' AGL
From Jan-22 @ 23:00 to Jan-23 @ 02:00
FM222300 35018G28KT P6SM SCT080 BKN150
Wind Visibility Clouds
350° at 18 knots
 Gusting to 28 knots
Greater than 6 miles
  • Scattered at 8,000' AGL
  • Broken at 15,000' AGL
From Jan-23 @ 02:00 to Jan-23 @ 12:00
FM230200 30007KT P6SM FEW150 SCT250
Wind Visibility Clouds
300° at 7 knots Greater than 6 miles
  • Few at 15,000' AGL
  • Scattered at 25,000' AGL
KPUB 221140Z 2212/2312 36025G35KT P6SM VCSH SCT020 BKN060 FM221600 36028G38KT P6SM SCT050 BKN100 FM222300 35018G28KT P6SM SCT080 BKN150 FM230200 30007KT P6SM FEW150 SCT250
Issued Jan-22 @ 11:40 UTC
(5 hours ago)
Valid From Jan-22 @ 12:00 UTC
(5 hours ago)
Valid To Jan-23 @ 12:00 UTC
(in 19 hours)
Jan-22 @ 12:00 - Jan-22 @ 16:00
Wind Visibility
360° at 25 knots
 Gusting to 35 knots
Greater than 6 miles
Clouds
  • Scattered at 2,000' AGL
  • Broken at 6,000' AGL
From Jan-22 @ 16:00 - Jan-22 @ 23:00
Wind Visibility
360° at 28 knots
 Gusting to 38 knots
Greater than 6 miles
Clouds
  • Scattered at 5,000' AGL
  • Broken at 10,000' AGL
From Jan-22 @ 23:00 - Jan-23 @ 02:00
Wind Visibility
350° at 18 knots
 Gusting to 28 knots
Greater than 6 miles
Clouds
  • Scattered at 8,000' AGL
  • Broken at 15,000' AGL
From Jan-23 @ 02:00 - Jan-23 @ 12:00
Wind Visibility
300° at 7 knots Greater than 6 miles
Clouds
  • Few at 15,000' AGL
  • Scattered at 25,000' AGL